sensor_id;sensor_type;location;lat;lon;timestamp;pressure;altitude;pressure_sealevel;temperature;humidity
26697;BME280;14312;52.614;13.496;2023-02-10T00:00:01;102487.19;;;4.52;59.97
26697;BME280;14312;52.614;13.496;2023-02-10T00:02:47;102487.19;;;4.52;59.95
26697;BME280;14312;52.614;13.496;2023-02-10T00:05:33;102496.75;;;4.53;59.91
26697;BME280;14312;52.614;13.496;2023-02-10T00:08:19;102492.31;;;4.53;60.14
26697;BME280;14312;52.614;13.496;2023-02-10T00:11:09;102490.66;;;4.52;59.81
26697;BME280;14312;52.614;13.496;2023-02-10T00:13:56;102499.69;;;4.50;60.04
26697;BME280;14312;52.614;13.496;2023-02-10T00:16:42;102497.38;;;4.47;60.03
26697;BME280;14312;52.614;13.496;2023-02-10T00:19:29;102495.72;;;4.46;59.94
26697;BME280;14312;52.614;13.496;2023-02-10T00:22:16;102492.69;;;4.41;60.15
26697;BME280;14312;52.614;13.496;2023-02-10T00:25:02;102493.84;;;4.38;60.08
26697;BME280;14312;52.614;13.496;2023-02-10T00:27:48;102494.97;;;4.36;60.07
26697;BME280;14312;52.614;13.496;2023-02-10T00:30:36;102497.25;;;4.30;60.26
26697;BME280;14312;52.614;13.496;2023-02-10T00:33:22;102497.53;;;4.27;60.20
26697;BME280;14312;52.614;13.496;2023-02-10T00:36:11;102497.03;;;4.24;60.32
26697;BME280;14312;52.614;13.496;2023-02-10T00:38:57;102498.16;;;4.21;60.32
26697;BME280;14312;52.614;13.496;2023-02-10T00:41:43;102508.03;;;4.19;60.30
26697;BME280;14312;52.614;13.496;2023-02-10T00:44:29;102515.13;;;4.19;60.90
26697;BME280;14312;52.614;13.496;2023-02-10T00:47:15;102517.91;;;4.17;60.86
26697;BME280;14312;52.614;13.496;2023-02-10T00:50:01;102521.22;;;4.19;60.90
26697;BME280;14312;52.614;13.496;2023-02-10T00:52:47;102524.53;;;4.21;61.11
26697;BME280;14312;52.614;13.496;2023-02-10T00:55:33;102529.53;;;4.24;61.11
26697;BME280;14312;52.614;13.496;2023-02-10T00:58:18;102530.88;;;4.28;61.17
26697;BME280;14312;52.614;13.496;2023-02-10T01:01:05;102535.84;;;4.31;61.32
26697;BME280;14312;52.614;13.496;2023-02-10T01:03:51;102533.56;;;4.37;61.36
26697;BME280;14312;52.614;13.496;2023-02-10T01:06:37;102534.91;;;4.41;61.36
26697;BME280;14312;52.614;13.496;2023-02-10T01:09:23;102531.16;;;4.43;61.33
26697;BME280;14312;52.614;13.496;2023-02-10T01:12:09;102543.22;;;4.46;61.30
26697;BME280;14312;52.614;13.496;2023-02-10T01:14:55;102535.44;;;4.44;61.08
26697;BME280;14312;52.614;13.496;2023-02-10T01:17:41;102539.91;;;4.44;61.14
26697;BME280;14312;52.614;13.496;2023-02-10T01:20:27;102535.75;;;4.41;61.04
26697;BME280;14312;52.614;13.496;2023-02-10T01:23:13;102533.28;;;4.40;61.26
26697;BME280;14312;52.614;13.496;2023-02-10T01:25:59;102534.25;;;4.39;61.22
26697;BME280;14312;52.614;13.496;2023-02-10T01:28:46;102540.81;;;4.34;61.32
26697;BME280;14312;52.614;13.496;2023-02-10T01:31:31;102539.31;;;4.32;61.26
26697;BME280;14312;52.614;13.496;2023-02-10T01:34:17;102547.25;;;4.32;61.51
26697;BME280;14312;52.614;13.496;2023-02-10T01:37:03;102544.59;;;4.32;61.35
26697;BME280;14312;52.614;13.496;2023-02-10T01:39:49;102537.81;;;4.29;61.48
26697;BME280;14312;52.614;13.496;2023-02-10T01:42:35;102534.47;;;4.27;61.37
26697;BME280;14312;52.614;13.496;2023-02-10T01:45:32;102529.81;;;4.21;61.35
26697;BME280;14312;52.614;13.496;2023-02-10T01:48:20;102530.13;;;4.18;61.46
26697;BME280;14312;52.614;13.496;2023-02-10T01:51:08;102517.22;;;4.15;61.40
26697;BME280;14312;52.614;13.496;2023-02-10T01:53:54;102516.03;;;4.10;61.51
26697;BME280;14312;52.614;13.496;2023-02-10T01:56:41;102511.19;;;4.05;61.51
26697;BME280;14312;52.614;13.496;2023-02-10T01:59:34;102522.19;;;4.01;61.66
26697;BME280;14312;52.614;13.496;2023-02-10T02:02:21;102525.59;;;3.93;61.70
26697;BME280;14312;52.614;13.496;2023-02-10T02:05:25;102519.94;;;3.88;61.60
26697;BME280;14312;52.614;13.496;2023-02-10T02:08:24;102524.84;;;3.83;61.73
26697;BME280;14312;52.614;13.496;2023-02-10T02:11:25;102532.34;;;3.78;61.81
26697;BME280;14312;52.614;13.496;2023-02-10T02:14:40;102538.22;;;3.72;61.71
26697;BME280;14312;52.614;13.496;2023-02-10T02:17:47;102543.25;;;3.65;61.96
26697;BME280;14312;52.614;13.496;2023-02-10T02:20:40;102557.72;;;3.61;62.15
26697;BME280;14312;52.614;13.496;2023-02-10T02:23:57;102549.56;;;3.54;61.78
26697;BME280;14312;52.614;13.496;2023-02-10T02:30:15;102549.16;;;3.49;62.40
26697;BME280;14312;52.614;13.496;2023-02-10T02:33:19;102545.03;;;3.47;62.52
26697;BME280;14312;52.614;13.496;2023-02-10T02:36:11;102547.09;;;3.43;62.59
26697;BME280;14312;52.614;13.496;2023-02-10T02:39:00;102547.09;;;3.43;62.36
26697;BME280;14312;52.614;13.496;2023-02-10T02:41:47;102546.13;;;3.44;62.95
26697;BME280;14312;52.614;13.496;2023-02-10T02:44:33;102538.09;;;3.46;62.89
26697;BME280;14312;52.614;13.496;2023-02-10T02:47:30;102540.59;;;3.47;62.92
26697;BME280;14312;52.614;13.496;2023-02-10T02:50:35;102547.19;;;3.51;63.15
26697;BME280;14312;52.614;13.496;2023-02-10T02:53:46;102541.66;;;3.54;63.08
26697;BME280;14312;52.614;13.496;2023-02-10T02:56:59;102544.94;;;3.57;63.21
26697;BME280;14312;52.614;13.496;2023-02-10T02:59:50;102548.28;;;3.59;63.52
26697;BME280;14312;52.614;13.496;2023-02-10T03:02:38;102542.72;;;3.62;63.38
26697;BME280;14312;52.614;13.496;2023-02-10T03:05:29;102540.75;;;3.64;63.30
26697;BME280;14312;52.614;13.496;2023-02-10T03:08:16;102547.41;;;3.68;63.50
26697;BME280;14312;52.614;13.496;2023-02-10T03:11:02;102552.38;;;3.71;63.75
26697;BME280;14312;52.614;13.496;2023-02-10T03:13:48;102556.53;;;3.73;63.70
26697;BME280;14312;52.614;13.496;2023-02-10T03:16:34;102553.59;;;3.76;63.76
26697;BME280;14312;52.614;13.496;2023-02-10T03:19:20;102549.97;;;3.77;63.54
26697;BME280;14312;52.614;13.496;2023-02-10T03:22:05;102556.47;;;3.83;63.94
26697;BME280;14312;52.614;13.496;2023-02-10T03:24:51;102549.22;;;3.85;63.82
26697;BME280;14312;52.614;13.496;2023-02-10T03:27:37;102547.28;;;3.87;63.97
26697;BME280;14312;52.614;13.496;2023-02-10T03:30:23;102548.81;;;3.89;63.87
26697;BME280;14312;52.614;13.496;2023-02-10T03:33:09;102555.56;;;3.92;63.88
26697;BME280;14312;52.614;13.496;2023-02-10T03:35:55;102551.81;;;3.94;63.98
26697;BME280;14312;52.614;13.496;2023-02-10T03:38:43;102541.94;;;3.97;63.67
26697;BME280;14312;52.614;13.496;2023-02-10T03:41:28;102554.97;;;3.98;63.82
26697;BME280;14312;52.614;13.496;2023-02-10T03:44:15;102549.69;;;3.98;63.87
26697;BME280;14312;52.614;13.496;2023-02-10T03:47:00;102559.25;;;3.99;63.83
26697;BME280;14312;52.614;13.496;2023-02-10T03:49:46;102562.72;;;4.00;63.82
26697;BME280;14312;52.614;13.496;2023-02-10T03:52:32;102574.13;;;4.00;64.09
26697;BME280;14312;52.614;13.496;2023-02-10T03:55:18;102573.13;;;4.01;63.79
26697;BME280;14312;52.614;13.496;2023-02-10T03:58:04;102568.56;;;4.03;64.27
26697;BME280;14312;52.614;13.496;2023-02-10T04:00:50;102570.88;;;4.06;64.04
26697;BME280;14312;52.614;13.496;2023-02-10T04:03:37;102552.28;;;4.08;64.15
26697;BME280;14312;52.614;13.496;2023-02-10T04:06:23;102558.22;;;4.10;64.31
26697;BME280;14312;52.614;13.496;2023-02-10T04:09:09;102544.91;;;4.11;64.18
26697;BME280;14312;52.614;13.496;2023-02-10T04:11:55;102535.97;;;4.12;64.34
26697;BME280;14312;52.614;13.496;2023-02-10T04:14:41;102526.13;;;4.14;64.31
26697;BME280;14312;52.614;13.496;2023-02-10T04:17:26;102535.69;;;4.15;64.29
26697;BME280;14312;52.614;13.496;2023-02-10T04:20:12;102550.53;;;4.16;64.51
26697;BME280;14312;52.614;13.496;2023-02-10T04:22:59;102561.09;;;4.16;64.55
26697;BME280;14312;52.614;13.496;2023-02-10T04:25:45;102562.06;;;4.15;64.35
26697;BME280;14312;52.614;13.496;2023-02-10T04:28:30;102554.03;;;4.17;64.57
26697;BME280;14312;52.614;13.496;2023-02-10T04:31:16;102579.25;;;4.19;64.54
26697;BME280;14312;52.614;13.496;2023-02-10T04:34:03;102572.34;;;4.18;64.65
26697;BME280;14312;52.614;13.496;2023-02-10T04:36:49;102572.03;;;4.21;64.69
26697;BME280;14312;52.614;13.496;2023-02-10T04:39:35;102573.69;;;4.22;64.73
26697;BME280;14312;52.614;13.496;2023-02-10T04:42:20;102571.88;;;4.23;64.79
26697;BME280;14312;52.614;13.496;2023-02-10T04:45:15;102578.00;;;4.23;64.97
26697;BME280;14312;52.614;13.496;2023-02-10T04:48:01;102573.41;;;4.25;64.87
26697;BME280;14312;52.614;13.496;2023-02-10T04:50:47;102576.03;;;4.25;64.85
26697;BME280;14312;52.614;13.496;2023-02-10T04:53:33;102574.06;;;4.27;64.91
26697;BME280;14312;52.614;13.496;2023-02-10T04:56:19;102575.56;;;4.30;64.92
26697;BME280;14312;52.614;13.496;2023-02-10T04:59:05;102578.22;;;4.30;64.95
26697;BME280;14312;52.614;13.496;2023-02-10T05:01:51;102583.34;;;4.31;65.03
26697;BME280;14312;52.614;13.496;2023-02-10T05:04:37;102586.97;;;4.30;65.00
26697;BME280;14312;52.614;13.496;2023-02-10T05:07:23;102580.72;;;4.31;65.04
26697;BME280;14312;52.614;13.496;2023-02-10T05:10:09;102583.34;;;4.31;65.15
26697;BME280;14312;52.614;13.496;2023-02-10T05:12:55;102592.25;;;4.30;64.99
26697;BME280;14312;52.614;13.496;2023-02-10T05:15:41;102590.56;;;4.29;64.99
26697;BME280;14312;52.614;13.496;2023-02-10T05:18:27;102590.56;;;4.29;65.08
26697;BME280;14312;52.614;13.496;2023-02-10T05:21:13;102585.31;;;4.29;65.21
26697;BME280;14312;52.614;13.496;2023-02-10T05:23:59;102591.69;;;4.27;65.33
26697;BME280;14312;52.614;13.496;2023-02-10T05:26:45;102582.28;;;4.24;65.05
26697;BME280;14312;52.614;13.496;2023-02-10T05:29:31;102579.94;;;4.21;65.17
26697;BME280;14312;52.614;13.496;2023-02-10T05:32:17;102580.41;;;4.17;64.97
26697;BME280;14312;52.614;13.496;2023-02-10T05:35:03;102592.06;;;4.14;65.01
26697;BME280;14312;52.614;13.496;2023-02-10T05:37:49;102598.50;;;4.12;65.43
26697;BME280;14312;52.614;13.496;2023-02-10T05:40:35;102601.56;;;4.07;65.43
26697;BME280;14312;52.614;13.496;2023-02-10T05:43:21;102599.22;;;4.04;65.36
26697;BME280;14312;52.614;13.496;2023-02-10T05:46:07;102602.16;;;4.01;65.45
26697;BME280;14312;52.614;13.496;2023-02-10T05:48:53;102593.88;;;3.96;65.65
26697;BME280;14312;52.614;13.496;2023-02-10T05:51:39;102594.00;;;3.94;65.65
26697;BME280;14312;52.614;13.496;2023-02-10T05:54:24;102587.22;;;3.92;65.71
26697;BME280;14312;52.614;13.496;2023-02-10T05:57:10;102591.13;;;3.88;65.90
26697;BME280;14312;52.614;13.496;2023-02-10T05:59:56;102594.75;;;3.87;66.15
26697;BME280;14312;52.614;13.496;2023-02-10T06:02:42;102597.66;;;3.84;65.94
26697;BME280;14312;52.614;13.496;2023-02-10T06:05:28;102602.28;;;3.82;66.00
26697;BME280;14312;52.614;13.496;2023-02-10T06:08:14;102602.28;;;3.82;66.02
26697;BME280;14312;52.614;13.496;2023-02-10T06:11:00;102604.22;;;3.80;66.22
26697;BME280;14312;52.614;13.496;2023-02-10T06:13:46;102606.16;;;3.78;66.33
26697;BME280;14312;52.614;13.496;2023-02-10T06:16:32;102609.09;;;3.75;66.28
26697;BME280;14312;52.614;13.496;2023-02-10T06:19:18;102623.13;;;3.75;66.44
26697;BME280;14312;52.614;13.496;2023-02-10T06:22:05;102626.72;;;3.74;66.38
26697;BME280;14312;52.614;13.496;2023-02-10T06:24:50;102634.78;;;3.73;66.69
26697;BME280;14312;52.614;13.496;2023-02-10T06:27:36;102629.50;;;3.73;66.72
26697;BME280;14312;52.614;13.496;2023-02-10T06:30:22;102636.44;;;3.74;66.66
26697;BME280;14312;52.614;13.496;2023-02-10T06:33:08;102625.91;;;3.74;67.00
26697;BME280;14312;52.614;13.496;2023-02-10T06:35:54;102625.91;;;3.74;66.92
26697;BME280;14312;52.614;13.496;2023-02-10T06:38:40;102622.28;;;3.75;66.96
26697;BME280;14312;52.614;13.496;2023-02-10T06:41:26;102633.66;;;3.75;66.96
26697;BME280;14312;52.614;13.496;2023-02-10T06:44:12;102639.78;;;3.76;67.24
26697;BME280;14312;52.614;13.496;2023-02-10T06:46:57;102639.78;;;3.76;67.31
26697;BME280;14312;52.614;13.496;2023-02-10T06:49:43;102638.78;;;3.77;67.27
26697;BME280;14312;52.614;13.496;2023-02-10T06:52:29;102637.78;;;3.78;67.53
26697;BME280;14312;52.614;13.496;2023-02-10T06:55:17;102648.06;;;3.81;67.24
26697;BME280;14312;52.614;13.496;2023-02-10T06:58:03;102654.03;;;3.83;67.42
26697;BME280;14312;52.614;13.496;2023-02-10T07:00:49;102659.13;;;3.84;67.47
26697;BME280;14312;52.614;13.496;2023-02-10T07:03:35;102657.50;;;3.83;67.60
26697;BME280;14312;52.614;13.496;2023-02-10T07:06:21;102664.97;;;3.88;67.77
26697;BME280;14312;52.614;13.496;2023-02-10T07:09:07;102653.13;;;3.92;67.80
26697;BME280;14312;52.614;13.496;2023-02-10T07:11:53;102666.72;;;3.97;67.83
26697;BME280;14312;52.614;13.496;2023-02-10T07:14:39;102662.13;;;3.99;68.01
26697;BME280;14312;52.614;13.496;2023-02-10T07:17:25;102658.22;;;4.03;68.04
26697;BME280;14312;52.614;13.496;2023-02-10T07:20:11;102663.19;;;4.06;68.05
26697;BME280;14312;52.614;13.496;2023-02-10T07:22:57;102676.78;;;4.11;68.29
26697;BME280;14312;52.614;13.496;2023-02-10T07:25:43;102682.72;;;4.13;68.22
26697;BME280;14312;52.614;13.496;2023-02-10T07:28:30;102688.56;;;4.17;68.24
26697;BME280;14312;52.614;13.496;2023-02-10T07:31:16;102683.81;;;4.20;68.34
26697;BME280;14312;52.614;13.496;2023-02-10T07:34:02;102680.56;;;4.26;68.49
26697;BME280;14312;52.614;13.496;2023-02-10T07:36:48;102685.56;;;4.29;68.42
26697;BME280;14312;52.614;13.496;2023-02-10T07:39:39;102684.97;;;4.36;68.64
26697;BME280;14312;52.614;13.496;2023-02-10T07:42:25;102686.34;;;4.40;68.63
26697;BME280;14312;52.614;13.496;2023-02-10T07:45:11;102685.88;;;4.44;68.55
26697;BME280;14312;52.614;13.496;2023-02-10T07:47:58;102694.31;;;4.48;68.50
26697;BME280;14312;52.614;13.496;2023-02-10T07:50:46;102695.38;;;4.55;68.64
26697;BME280;14312;52.614;13.496;2023-02-10T07:53:32;102691.63;;;4.57;68.60
26697;BME280;14312;52.614;13.496;2023-02-10T07:56:18;102703.56;;;4.61;68.42
26697;BME280;14312;52.614;13.496;2023-02-10T07:59:04;102697.84;;;4.66;68.56
26697;BME280;14312;52.614;13.496;2023-02-10T08:01:50;102706.25;;;4.69;68.47
26697;BME280;14312;52.614;13.496;2023-02-10T08:04:36;102713.91;;;4.72;68.49
26697;BME280;14312;52.614;13.496;2023-02-10T08:07:22;102710.81;;;4.77;68.60
26697;BME280;14312;52.614;13.496;2023-02-10T08:10:09;102714.81;;;4.81;68.82
26697;BME280;14312;52.614;13.496;2023-02-10T08:12:55;102718.81;;;4.85;68.74
26697;BME280;14312;52.614;13.496;2023-02-10T08:15:41;102733.06;;;4.92;68.87
26697;BME280;14312;52.614;13.496;2023-02-10T08:18:26;102721.91;;;4.98;69.05
26697;BME280;14312;52.614;13.496;2023-02-10T08:21:12;102725.59;;;5.05;68.96
26697;BME280;14312;52.614;13.496;2023-02-10T08:23:58;102719.69;;;5.11;68.92
26697;BME280;14312;52.614;13.496;2023-02-10T08:26:44;102730.50;;;5.18;68.83
26697;BME280;14312;52.614;13.496;2023-02-10T08:29:30;102729.75;;;5.26;68.94
26697;BME280;14312;52.614;13.496;2023-02-10T08:32:16;102736.09;;;5.33;68.99
26697;BME280;14312;52.614;13.496;2023-02-10T08:35:05;102733.81;;;5.38;68.86
26697;BME280;14312;52.614;13.496;2023-02-10T08:37:51;102714.00;;;5.42;68.91
26697;BME280;14312;52.614;13.496;2023-02-10T08:40:37;102728.09;;;5.50;68.84
26697;BME280;14312;52.614;13.496;2023-02-10T08:43:24;102720.38;;;5.57;69.08
26697;BME280;14312;52.614;13.496;2023-02-10T08:46:10;102736.44;;;5.64;69.00
26697;BME280;14312;52.614;13.496;2023-02-10T08:48:57;102734.69;;;5.72;68.80
26697;BME280;14312;52.614;13.496;2023-02-10T08:51:45;102729.75;;;5.77;68.94
26697;BME280;14312;52.614;13.496;2023-02-10T08:54:31;102722.59;;;5.87;69.05
26697;BME280;14312;52.614;13.496;2023-02-10T08:57:17;102731.53;;;5.95;68.82
26697;BME280;14312;52.614;13.496;2023-02-10T09:00:07;102732.56;;;6.02;68.45
26697;BME280;14312;52.614;13.496;2023-02-10T09:02:53;102729.28;;;6.08;68.71
26697;BME280;14312;52.614;13.496;2023-02-10T09:05:39;102737.28;;;6.16;68.95
26697;BME280;14312;52.614;13.496;2023-02-10T09:08:26;102728.69;;;6.22;68.65
26697;BME280;14312;52.614;13.496;2023-02-10T09:11:12;102735.16;;;6.27;68.63
26697;BME280;14312;52.614;13.496;2023-02-10T09:13:58;102740.00;;;6.32;68.82
26697;BME280;14312;52.614;13.496;2023-02-10T09:16:44;102723.47;;;6.38;68.52
26697;BME280;14312;52.614;13.496;2023-02-10T09:19:30;102736.06;;;6.44;68.24
26697;BME280;14312;52.614;13.496;2023-02-10T09:22:16;102735.72;;;6.47;68.39
26697;BME280;14312;52.614;13.496;2023-02-10T09:25:03;102737.06;;;6.51;68.52
26697;BME280;14312;52.614;13.496;2023-02-10T09:27:51;102742.84;;;6.55;68.53
26697;BME280;14312;52.614;13.496;2023-02-10T09:30:37;102747.00;;;6.57;68.47
26697;BME280;14312;52.614;13.496;2023-02-10T09:33:23;102753.63;;;6.61;68.24
26697;BME280;14312;52.614;13.496;2023-02-10T09:36:18;102755.81;;;6.66;68.07
26697;BME280;14312;52.614;13.496;2023-02-10T09:39:04;102747.72;;;6.67;68.37
26697;BME280;14312;52.614;13.496;2023-02-10T09:42:14;102760.31;;;6.74;67.84
26697;BME280;14312;52.614;13.496;2023-02-10T09:45:18;102769.94;;;6.75;67.85
26697;BME280;14312;52.614;13.496;2023-02-10T09:48:11;102765.44;;;6.75;68.18
26697;BME280;14312;52.614;13.496;2023-02-10T09:51:34;102764.28;;;6.78;67.82
26697;BME280;14312;52.614;13.496;2023-02-10T09:54:24;102761.78;;;6.76;68.05
26697;BME280;14312;52.614;13.496;2023-02-10T09:57:20;102778.19;;;6.80;67.71
26697;BME280;14312;52.614;13.496;2023-02-10T10:00:32;102772.56;;;6.83;68.28
26697;BME280;14312;52.614;13.496;2023-02-10T10:03:23;102774.22;;;6.84;67.91
26697;BME280;14312;52.614;13.496;2023-02-10T10:06:27;102775.88;;;6.85;68.27
26697;BME280;14312;52.614;13.496;2023-02-10T10:09:38;102782.53;;;6.89;68.03
26697;BME280;14312;52.614;13.496;2023-02-10T10:12:26;102787.50;;;6.92;68.21
26697;BME280;14312;52.614;13.496;2023-02-10T10:15:17;102786.19;;;6.96;68.37
26697;BME280;14312;52.614;13.496;2023-02-10T10:21:03;102779.25;;;7.03;68.00
26697;BME280;14312;52.614;13.496;2023-02-10T10:24:12;102772.47;;;7.08;67.84
26697;BME280;14312;52.614;13.496;2023-02-10T10:30:11;102796.81;;;7.20;68.05
26697;BME280;14312;52.614;13.496;2023-02-10T10:33:12;102778.59;;;7.25;68.41
26697;BME280;14312;52.614;13.496;2023-02-10T10:36:01;102782.59;;;7.29;68.13
26697;BME280;14312;52.614;13.496;2023-02-10T10:38:52;102782.59;;;7.37;68.28
26697;BME280;14312;52.614;13.496;2023-02-10T10:41:41;102776.94;;;7.40;68.36
26697;BME280;14312;52.614;13.496;2023-02-10T10:44:30;102778.28;;;7.44;68.09
26697;BME280;14312;52.614;13.496;2023-02-10T10:50:17;102761.03;;;7.57;68.61
26697;BME280;14312;52.614;13.496;2023-02-10T10:53:13;102765.34;;;7.66;67.94
26697;BME280;14312;52.614;13.496;2023-02-10T10:56:01;102758.50;;;7.71;68.37
26697;BME280;14312;52.614;13.496;2023-02-10T10:58:50;102753.38;;;7.78;68.28
26697;BME280;14312;52.614;13.496;2023-02-10T11:01:40;102751.03;;;7.83;67.83
26697;BME280;14312;52.614;13.496;2023-02-10T11:04:26;102757.50;;;7.89;68.20
26697;BME280;14312;52.614;13.496;2023-02-10T11:07:20;102761.13;;;7.96;68.22
26697;BME280;14312;52.614;13.496;2023-02-10T11:10:21;102751.50;;;8.03;67.91
26697;BME280;14312;52.614;13.496;2023-02-10T11:13:17;102746.66;;;8.06;67.48
26697;BME280;14312;52.614;13.496;2023-02-10T11:16:10;102741.66;;;8.11;67.56
26697;BME280;14312;52.614;13.496;2023-02-10T11:18:59;102739.97;;;8.18;67.85
26697;BME280;14312;52.614;13.496;2023-02-10T11:21:46;102747.56;;;8.30;68.15
26697;BME280;14312;52.614;13.496;2023-02-10T11:24:33;102741.88;;;8.41;68.16
26697;BME280;14312;52.614;13.496;2023-02-10T11:27:19;102731.53;;;8.54;67.72
26697;BME280;14312;52.614;13.496;2023-02-10T11:30:05;102729.47;;;8.64;67.40
26697;BME280;14312;52.614;13.496;2023-02-10T11:32:51;102732.09;;;8.72;67.50
26697;BME280;14312;52.614;13.496;2023-02-10T11:35:37;102737.00;;;8.83;67.19
26697;BME280;14312;52.614;13.496;2023-02-10T11:38:24;102749.22;;;8.92;67.00
26697;BME280;14312;52.614;13.496;2023-02-10T11:41:10;102717.44;;;8.99;66.91
26697;BME280;14312;52.614;13.496;2023-02-10T11:43:56;102725.47;;;9.14;67.12
26697;BME280;14312;52.614;13.496;2023-02-10T11:46:42;102734.97;;;9.31;65.94
26697;BME280;14312;52.614;13.496;2023-02-10T11:49:30;102722.59;;;9.38;65.02
26697;BME280;14312;52.614;13.496;2023-02-10T11:52:21;102723.41;;;9.38;64.51
26697;BME280;14312;52.614;13.496;2023-02-10T11:55:12;102722.97;;;9.35;64.73
26697;BME280;14312;52.614;13.496;2023-02-10T11:58:20;102731.66;;;9.29;64.39
26697;BME280;14312;52.614;13.496;2023-02-10T12:01:44;102733.75;;;9.19;64.59
26697;BME280;14312;52.614;13.496;2023-02-10T12:04:58;102736.44;;;9.11;64.61
26697;BME280;14312;52.614;13.496;2023-02-10T12:21:21;102716.09;;;8.80;65.35
26697;BME280;14312;52.614;13.496;2023-02-10T12:27:21;102718.03;;;8.86;65.79
26697;BME280;14312;52.614;13.496;2023-02-10T12:34:06;102715.25;;;9.02;66.39
26697;BME280;14312;52.614;13.496;2023-02-10T12:36:25;102715.19;;;9.11;65.82
26697;BME280;14312;52.614;13.496;2023-02-10T12:39:22;102707.50;;;9.16;65.28
26697;BME280;14312;52.614;13.496;2023-02-10T12:45:38;102711.47;;;9.20;65.33
26697;BME280;14312;52.614;13.496;2023-02-10T12:54:40;102692.50;;;9.23;65.04
26697;BME280;14312;52.614;13.496;2023-02-10T12:57:41;102687.50;;;9.20;65.04
26697;BME280;14312;52.614;13.496;2023-02-10T13:03:27;102688.91;;;9.16;64.69
26697;BME280;14312;52.614;13.496;2023-02-10T13:06:34;102696.41;;;9.12;65.36
26697;BME280;14312;52.614;13.496;2023-02-10T13:09:31;102697.56;;;9.10;64.80
26697;BME280;14312;52.614;13.496;2023-02-10T13:12:32;102688.13;;;9.07;65.08
26697;BME280;14312;52.614;13.496;2023-02-10T13:18:25;102686.94;;;9.10;65.22
26697;BME280;14312;52.614;13.496;2023-02-10T13:24:17;102685.59;;;9.14;65.11
26697;BME280;14312;52.614;13.496;2023-02-10T13:30:25;102682.91;;;9.14;64.64
26697;BME280;14312;52.614;13.496;2023-02-10T13:33:24;102685.31;;;9.09;64.68
26697;BME280;14312;52.614;13.496;2023-02-10T13:36:19;102692.63;;;9.07;64.86
26697;BME280;14312;52.614;13.496;2023-02-10T13:39:17;102690.31;;;9.03;65.03
26697;BME280;14312;52.614;13.496;2023-02-10T13:42:09;102686.00;;;9.02;65.08
26697;BME280;14312;52.614;13.496;2023-02-10T13:45:04;102684.38;;;9.01;65.03
26697;BME280;14312;52.614;13.496;2023-02-10T13:47:56;102687.84;;;9.02;65.22
26697;BME280;14312;52.614;13.496;2023-02-10T13:50:51;102688.47;;;9.04;64.72
26697;BME280;14312;52.614;13.496;2023-02-10T13:53:41;102685.66;;;9.06;65.39
26697;BME280;14312;52.614;13.496;2023-02-10T13:56:33;102669.34;;;9.09;65.59
26697;BME280;14312;52.614;13.496;2023-02-10T14:02:22;102668.44;;;9.16;65.35
26697;BME280;14312;52.614;13.496;2023-02-10T14:05:29;102663.84;;;9.25;65.46
26697;BME280;14312;52.614;13.496;2023-02-10T14:08:45;102663.44;;;9.36;65.23
26697;BME280;14312;52.614;13.496;2023-02-10T14:11:40;102662.31;;;9.45;65.51
26697;BME280;14312;52.614;13.496;2023-02-10T14:14:35;102650.41;;;9.56;65.34
26697;BME280;14312;52.614;13.496;2023-02-10T14:17:24;102646.44;;;9.66;65.41
26697;BME280;14312;52.614;13.496;2023-02-10T14:20:17;102656.47;;;9.79;65.01
26697;BME280;14312;52.614;13.496;2023-02-10T14:23:18;102654.25;;;9.82;64.20
26697;BME280;14312;52.614;13.496;2023-02-10T14:26:12;102654.25;;;9.82;64.39
26697;BME280;14312;52.614;13.496;2023-02-10T14:29:00;102655.25;;;9.81;64.28
26697;BME280;14312;52.614;13.496;2023-02-10T14:31:53;102651.97;;;9.79;64.12
26697;BME280;14312;52.614;13.496;2023-02-10T14:34:52;102652.69;;;9.73;63.79
26697;BME280;14312;52.614;13.496;2023-02-10T14:37:51;102635.44;;;9.69;64.28
26697;BME280;14312;52.614;13.496;2023-02-10T14:40:37;102634.16;;;9.65;64.24
26697;BME280;14312;52.614;13.496;2023-02-10T14:43:26;102642.16;;;9.65;64.40
26697;BME280;14312;52.614;13.496;2023-02-10T14:46:25;102631.31;;;9.67;64.46
26697;BME280;14312;52.614;13.496;2023-02-10T14:49:15;102634.78;;;9.67;64.64
26697;BME280;14312;52.614;13.496;2023-02-10T14:52:04;102642.88;;;9.74;64.70
26697;BME280;14312;52.614;13.496;2023-02-10T14:54:50;102646.19;;;9.76;64.47
26697;BME280;14312;52.614;13.496;2023-02-10T14:57:43;102637.19;;;9.77;63.84
26697;BME280;14312;52.614;13.496;2023-02-10T15:00:30;102622.41;;;9.74;63.78
26697;BME280;14312;52.614;13.496;2023-02-10T15:03:16;102622.13;;;9.69;63.58
26697;BME280;14312;52.614;13.496;2023-02-10T15:06:04;102630.69;;;9.65;63.65
26697;BME280;14312;52.614;13.496;2023-02-10T15:08:54;102624.88;;;9.61;63.58
26697;BME280;14312;52.614;13.496;2023-02-10T15:11:44;102625.44;;;9.57;63.45
26697;BME280;14312;52.614;13.496;2023-02-10T15:18:00;102629.94;;;9.41;63.42
26697;BME280;14312;52.614;13.496;2023-02-10T15:20:58;102633.50;;;9.34;63.40
26697;BME280;14312;52.614;13.496;2023-02-10T15:23:48;102635.59;;;9.24;63.57
26697;BME280;14312;52.614;13.496;2023-02-10T15:26:35;102627.72;;;9.16;63.97
26697;BME280;14312;52.614;13.496;2023-02-10T15:29:25;102623.47;;;9.07;63.96
26697;BME280;14312;52.614;13.496;2023-02-10T15:32:17;102632.19;;;9.00;63.81
26697;BME280;14312;52.614;13.496;2023-02-10T15:35:07;102626.94;;;8.92;64.41
26697;BME280;14312;52.614;13.496;2023-02-10T15:37:58;102617.66;;;8.88;64.49
26697;BME280;14312;52.614;13.496;2023-02-10T15:40:56;102622.69;;;8.83;64.27
26697;BME280;14312;52.614;13.496;2023-02-10T15:43:47;102618.09;;;8.77;64.52
26697;BME280;14312;52.614;13.496;2023-02-10T15:46:33;102609.84;;;8.72;64.74